Time;durP1;ratioP1;P1;durP2;ratioP2;P2;SDS_P1;SDS_P2;PMS_P1;PMS_P2;Temp;Humidity;BMP_temperature;BMP_pressure;BME280_temperature;BME280_humidity;BME280_pressure;Samples;Min_cycle;Max_cycle;Signal;HPM_P1;HPM_P2
2022/08/27 00:01:27;;;;;;;20.73;18.50;;;23.40;99.90;;;;;;5024206;28;20443;-66
2022/08/27 00:03:54;;;;;;;20.00;17.83;;;23.40;99.90;;;;;;5025408;28;20557;-68
2022/08/27 00:06:20;;;;;;;24.10;21.03;;;23.40;99.90;;;;;;5023970;28;20651;-67
2022/08/27 00:08:47;;;;;;;22.87;20.67;;;23.40;99.90;;;;;;5025766;28;20502;-68
2022/08/27 00:11:14;;;;;;;20.97;18.90;;;23.30;99.90;;;;;;5027865;28;20538;-68
2022/08/27 00:13:40;;;;;;;21.07;19.07;;;23.30;99.90;;;;;;5028441;28;20439;-68
2022/08/27 00:16:09;;;;;;;21.50;19.40;;;23.30;99.90;;;;;;5027740;28;20516;-68
2022/08/27 00:18:36;;;;;;;21.40;19.10;;;23.30;99.90;;;;;;5029119;28;20422;-68
2022/08/27 00:21:02;;;;;;;23.47;20.10;;;23.30;99.90;;;;;;5028672;28;20443;-68
2022/08/27 00:23:28;;;;;;;24.50;21.43;;;23.20;99.90;;;;;;5027568;28;20804;-68
2022/08/27 00:25:54;;;;;;;27.43;20.70;;;23.20;99.90;;;;;;5028857;28;20423;-68
2022/08/27 00:28:20;;;;;;;22.10;20.07;;;23.20;99.90;;;;;;5027118;28;20443;-68
2022/08/27 00:30:46;;;;;;;26.17;23.63;;;23.20;99.90;;;;;;5040257;22;20236;-62
2022/08/27 00:33:12;;;;;;;24.10;21.70;;;23.20;99.90;;;;;;5017878;28;20447;-62
2022/08/27 00:35:38;;;;;;;25.00;22.40;;;23.20;99.90;;;;;;5018151;28;20212;-62
2022/08/27 00:38:05;;;;;;;25.37;22.97;;;23.20;99.90;;;;;;5017984;28;20185;-62
2022/08/27 00:40:32;;;;;;;24.10;21.60;;;23.10;99.90;;;;;;5020761;28;20450;-63
2022/08/27 00:43:01;;;;;;;25.20;22.60;;;23.00;99.90;;;;;;5026200;28;20449;-63
2022/08/27 00:45:27;;;;;;;25.67;22.47;;;23.00;99.90;;;;;;5024123;28;20474;-63
2022/08/27 00:47:56;;;;;;;24.33;21.50;;;23.00;99.90;;;;;;5028131;28;20458;-63
2022/08/27 00:50:42;;;;;;;25.93;23.33;;;23.10;99.90;;;;;;5027884;28;20438;-63
2022/08/27 00:53:16;;;;;;;25.80;23.33;;;23.00;99.90;;;;;;5024654;28;20542;-63
2022/08/27 00:55:53;;;;;;;26.97;24.07;;;23.00;99.90;;;;;;5027194;28;20470;-63
2022/08/27 00:58:31;;;;;;;25.53;22.93;;;23.10;99.90;;;;;;5026328;28;20493;-63
2022/08/27 01:00:58;;;;;;;24.83;22.30;;;23.10;99.90;;;;;;5026982;28;20577;-62
2022/08/27 01:03:25;;;;;;;24.73;22.40;;;23.10;99.90;;;;;;5023547;28;20438;-63
2022/08/27 01:05:53;;;;;;;25.03;22.43;;;23.10;99.90;;;;;;5024887;28;20453;-63
2022/08/27 01:08:25;;;;;;;27.10;24.23;;;23.10;99.90;;;;;;5026603;28;20426;-62
2022/08/27 01:10:53;;;;;;;28.73;23.20;;;23.10;99.90;;;;;;5020831;28;20459;-62
2022/08/27 01:13:22;;;;;;;27.60;22.40;;;23.10;99.90;;;;;;5023576;28;20931;-62
2022/08/27 01:15:48;;;;;;;25.97;23.10;;;23.10;99.90;;;;;;5022737;28;20967;-63
2022/08/27 01:18:15;;;;;;;24.07;21.40;;;23.20;99.90;;;;;;5026559;28;20964;-62
2022/08/27 01:20:47;;;;;;;27.17;24.10;;;23.10;99.90;;;;;;5027860;28;20485;-63
2022/08/27 01:23:17;;;;;;;24.67;20.57;;;23.10;99.90;;;;;;5022031;28;20514;-62
2022/08/27 01:25:43;;;;;;;25.90;23.40;;;23.10;99.90;;;;;;5023921;28;20450;-62
2022/08/27 01:28:09;;;;;;;26.27;23.10;;;23.00;99.90;;;;;;5025959;28;20447;-62
2022/08/27 01:30:35;;;;;;;24.63;22.27;;;23.00;99.90;;;;;;5026450;28;21038;-63
2022/08/27 01:33:15;;;;;;;28.33;23.20;;;23.00;99.90;;;;;;5026192;28;20435;-63
2022/08/27 01:35:43;;;;;;;23.50;21.17;;;23.00;99.90;;;;;;5026992;28;21234;-62
2022/08/27 01:38:09;;;;;;;25.90;23.20;;;23.00;99.90;;;;;;5025834;28;20427;-62
2022/08/27 01:40:36;;;;;;;25.57;22.97;;;23.00;99.90;;;;;;5025440;28;20538;-62
2022/08/27 01:43:03;;;;;;;24.80;22.27;;;23.10;99.90;;;;;;5023772;28;20526;-63
2022/08/27 01:45:32;;;;;;;24.53;22.10;;;23.10;99.90;;;;;;5025355;28;20437;-62
2022/08/27 01:47:59;;;;;;;22.50;19.97;;;23.10;99.90;;;;;;5024258;28;20458;-62
2022/08/27 01:50:31;;;;;;;24.43;21.93;;;23.10;99.90;;;;;;5024097;28;20458;-63
2022/08/27 01:53:00;;;;;;;23.73;21.27;;;23.10;99.90;;;;;;5026022;28;20822;-63
2022/08/27 01:55:26;;;;;;;24.27;21.77;;;23.10;99.90;;;;;;5026828;28;20412;-63
2022/08/27 01:57:53;;;;;;;24.40;21.27;;;23.00;99.90;;;;;;5025681;28;20451;-63
2022/08/27 02:00:30;;;;;;;23.73;21.33;;;23.10;99.90;;;;;;5024495;28;20204;-63
2022/08/27 02:02:57;;;;;;;25.97;23.47;;;23.00;99.90;;;;;;5026339;28;20788;-63
2022/08/27 02:05:24;;;;;;;23.90;21.40;;;23.00;99.90;;;;;;5025071;28;20533;-63
2022/08/27 02:07:50;;;;;;;24.57;22.07;;;23.00;99.90;;;;;;5024270;28;20541;-63
2022/08/27 02:10:21;;;;;;;27.73;24.73;;;23.00;99.90;;;;;;5026082;28;20511;-63
2022/08/27 02:12:46;;;;;;;26.17;23.40;;;23.00;99.90;;;;;;5021723;28;22111;-63
2022/08/27 02:15:12;;;;;;;29.40;26.10;;;22.90;99.90;;;;;;5025565;28;20435;-63
2022/08/27 02:17:38;;;;;;;29.47;26.33;;;22.80;99.90;;;;;;5024428;28;20181;-63
2022/08/27 02:20:07;;;;;;;30.40;24.23;;;22.80;99.90;;;;;;5025192;28;20188;-63
2022/08/27 02:22:33;;;;;;;27.03;24.17;;;22.70;99.90;;;;;;5023879;28;20272;-63
2022/08/27 02:24:59;;;;;;;28.20;24.20;;;22.60;99.90;;;;;;5025463;28;20473;-63
2022/08/27 02:27:25;;;;;;;28.13;24.87;;;22.60;99.90;;;;;;5024291;28;20435;-63
2022/08/27 02:29:50;;;;;;;28.40;24.67;;;22.50;99.90;;;;;;5024005;28;20216;-63
2022/08/27 02:32:16;;;;;;;29.60;24.70;;;22.50;99.90;;;;;;5023335;28;20246;-63
2022/08/27 02:34:42;;;;;;;27.50;24.50;;;22.50;99.90;;;;;;5024985;28;20181;-63
2022/08/27 02:37:08;;;;;;;27.40;23.63;;;22.50;99.90;;;;;;5024938;28;20502;-63
2022/08/27 02:39:34;;;;;;;27.73;24.73;;;22.60;99.90;;;;;;5023789;28;20211;-63
2022/08/27 02:42:00;;;;;;;29.50;26.40;;;22.50;99.90;;;;;;5021376;28;20212;-63
2022/08/27 02:44:26;;;;;;;28.00;25.20;;;22.50;99.90;;;;;;5023042;28;20438;-62
2022/08/27 02:46:52;;;;;;;26.50;23.70;;;22.40;99.90;;;;;;5025040;28;20192;-63
2022/08/27 02:49:17;;;;;;;31.37;24.60;;;22.60;99.90;;;;;;5023358;28;20988;-63
2022/08/27 02:51:43;;;;;;;26.00;22.80;;;22.60;99.90;;;;;;5020171;28;20200;-63
2022/08/27 02:54:09;;;;;;;27.03;24.13;;;22.50;99.90;;;;;;5022187;28;20735;-63
2022/08/27 02:56:35;;;;;;;29.93;25.87;;;22.50;99.90;;;;;;5025209;28;20215;-63
2022/08/27 02:59:01;;;;;;;26.40;23.60;;;22.40;99.90;;;;;;5025018;28;20447;-63
2022/08/27 03:01:26;;;;;;;26.70;23.87;;;22.40;99.90;;;;;;5023147;28;20200;-63
2022/08/27 03:03:52;;;;;;;29.77;25.80;;;22.50;99.90;;;;;;5024875;28;20654;-63
2022/08/27 03:06:18;;;;;;;28.33;25.20;;;22.50;99.90;;;;;;5023992;28;20272;-63
2022/08/27 03:08:43;;;;;;;30.80;27.30;;;22.60;99.90;;;;;;5025464;28;20180;-63
2022/08/27 03:11:09;;;;;;;32.43;24.57;;;22.60;99.90;;;;;;5023149;28;20208;-63
2022/08/27 03:13:36;;;;;;;28.07;23.93;;;22.50;99.90;;;;;;5022757;28;20188;-63
2022/08/27 03:16:03;;;;;;;29.87;24.23;;;22.40;99.90;;;;;;5022530;28;20219;-63
2022/08/27 03:18:28;;;;;;;32.60;26.23;;;22.50;99.90;;;;;;5024344;28;20430;-63
2022/08/27 03:20:55;;;;;;;32.93;26.87;;;22.50;99.90;;;;;;5025459;28;20447;-63
2022/08/27 03:23:28;;;;;;;27.80;24.90;;;22.40;99.90;;;;;;5023627;28;20211;-63
2022/08/27 03:25:56;;;;;;;26.87;24.07;;;22.40;99.90;;;;;;5023669;28;20439;-63
2022/08/27 03:28:24;;;;;;;28.73;25.40;;;22.50;99.90;;;;;;5022810;28;20439;-63
2022/08/27 03:31:02;;;;;;;28.87;24.37;;;22.50;99.90;;;;;;5021714;28;20501;-63
2022/08/27 03:33:34;;;;;;;28.47;25.57;;;22.60;99.90;;;;;;5024758;28;20792;-63
2022/08/27 03:35:59;;;;;;;29.50;25.27;;;22.60;99.90;;;;;;5021589;28;20545;-63
2022/08/27 03:38:26;;;;;;;27.83;24.80;;;22.60;99.90;;;;;;5022084;28;21160;-63
2022/08/27 03:40:52;;;;;;;29.13;24.93;;;22.60;99.90;;;;;;5024556;28;20207;-63
2022/08/27 03:43:19;;;;;;;29.90;25.60;;;22.60;99.90;;;;;;5023905;28;20439;-63
2022/08/27 03:45:46;;;;;;;28.97;25.13;;;22.60;99.90;;;;;;5021478;28;20438;-63
2022/08/27 03:48:13;;;;;;;28.90;25.90;;;22.50;99.90;;;;;;5025141;28;20469;-64
2022/08/27 03:50:42;;;;;;;31.53;26.87;;;22.60;99.90;;;;;;5025578;28;20462;-64
2022/08/27 03:53:08;;;;;;;29.93;26.67;;;22.50;99.90;;;;;;5027913;28;20426;-63
2022/08/27 03:55:34;;;;;;;30.10;26.30;;;22.60;99.90;;;;;;5028071;28;20470;-63
2022/08/27 03:58:00;;;;;;;32.60;26.67;;;22.50;99.90;;;;;;5025998;28;20501;-63
2022/08/27 04:00:26;;;;;;;28.50;24.67;;;22.50;99.90;;;;;;5027224;28;20639;-63
2022/08/27 04:02:53;;;;;;;32.23;27.13;;;22.50;99.90;;;;;;5027995;28;20660;-63
2022/08/27 04:05:20;;;;;;;29.30;26.17;;;22.50;99.90;;;;;;5026498;28;20208;-63
2022/08/27 04:07:47;;;;;;;29.60;26.50;;;22.50;99.90;;;;;;5024475;28;20434;-63
2022/08/27 04:10:14;;;;;;;34.27;27.97;;;22.60;99.90;;;;;;5028241;28;20419;-64
2022/08/27 04:12:40;;;;;;;30.63;26.30;;;22.50;99.90;;;;;;5027349;28;20430;-63
2022/08/27 04:15:08;;;;;;;29.67;26.40;;;22.40;99.90;;;;;;5025521;28;20835;-64
2022/08/27 04:17:33;;;;;;;29.87;25.23;;;22.50;99.90;;;;;;5028598;28;20205;-63
2022/08/27 04:19:59;;;;;;;30.37;27.07;;;22.50;99.90;;;;;;5026371;28;20497;-64
2022/08/27 04:22:26;;;;;;;30.17;26.93;;;22.60;99.90;;;;;;5028079;28;20181;-63
2022/08/27 04:24:52;;;;;;;27.83;24.67;;;22.50;99.90;;;;;;5027612;28;20189;-63
2022/08/27 04:27:19;;;;;;;29.23;26.00;;;22.50;99.90;;;;;;5029009;28;20447;-63
2022/08/27 04:29:45;;;;;;;30.30;27.13;;;22.50;99.90;;;;;;5026686;28;20446;-63
2022/08/27 04:32:11;;;;;;;33.77;27.87;;;22.50;99.90;;;;;;5029107;28;20460;-63
2022/08/27 04:34:37;;;;;;;30.40;26.83;;;22.50;99.90;;;;;;5027773;28;20506;-63
2022/08/27 04:37:02;;;;;;;37.97;28.70;;;22.50;99.90;;;;;;5026786;28;20227;-64
2022/08/27 04:39:29;;;;;;;32.20;27.80;;;22.50;99.90;;;;;;5024358;28;20235;-63
2022/08/27 04:41:57;;;;;;;34.27;27.93;;;22.50;99.90;;;;;;5024900;28;20250;-63
2022/08/27 04:44:27;;;;;;;31.73;28.33;;;22.50;99.90;;;;;;5025440;28;20434;-63
2022/08/27 04:46:56;;;;;;;32.43;27.10;;;22.60;99.90;;;;;;5027148;28;20457;-63
2022/08/27 04:49:22;;;;;;;32.50;25.57;;;22.60;99.90;;;;;;5025252;28;20431;-63
2022/08/27 04:51:48;;;;;;;31.00;27.70;;;22.60;99.90;;;;;;5024291;28;20994;-63
2022/08/27 04:54:14;;;;;;;28.53;25.47;;;22.60;99.90;;;;;;5022056;28;20439;-63
2022/08/27 04:56:39;;;;;;;33.57;29.07;;;22.60;99.90;;;;;;5025103;28;20208;-63
2022/08/27 04:59:07;;;;;;;36.50;28.70;;;22.60;99.90;;;;;;5023712;28;20676;-63
2022/08/27 05:01:34;;;;;;;30.87;27.50;;;22.60;99.90;;;;;;5025496;28;20204;-64
2022/08/27 05:03:59;;;;;;;31.23;27.83;;;22.60;99.90;;;;;;5024583;28;20427;-63
2022/08/27 05:06:26;;;;;;;35.17;27.60;;;22.60;99.90;;;;;;5023673;28;21176;-63
2022/08/27 05:08:53;;;;;;;32.13;28.63;;;22.70;99.90;;;;;;5027079;28;20180;-64
2022/08/27 05:11:20;;;;;;;33.07;26.50;;;22.60;99.90;;;;;;5026266;28;20939;-63
2022/08/27 05:13:46;;;;;;;35.93;29.60;;;22.60;99.90;;;;;;5026017;28;20887;-63
2022/08/27 05:16:18;;;;;;;31.77;27.30;;;22.50;99.90;;;;;;5025956;28;20467;-63
2022/08/27 05:18:45;;;;;;;36.07;27.83;;;22.60;99.90;;;;;;5024152;28;20439;-64
2022/08/27 05:21:19;;;;;;;37.40;27.60;;;22.60;99.90;;;;;;5027148;28;20459;-63
2022/08/27 05:23:46;;;;;;;30.53;25.90;;;22.60;99.90;;;;;;5024140;28;20473;-63
2022/08/27 05:26:12;;;;;;;33.17;27.43;;;22.60;99.90;;;;;;5025138;28;20488;-63
2022/08/27 05:28:38;;;;;;;38.70;29.33;;;22.60;99.90;;;;;;5023919;28;20868;-62
2022/08/27 05:31:07;;;;;;;36.63;30.40;;;22.70;99.90;;;;;;5025798;28;20808;-62
2022/08/27 05:33:34;;;;;;;34.67;30.27;;;22.70;99.90;;;;;;5026552;28;20180;-63
2022/08/27 05:36:00;;;;;;;32.70;28.97;;;22.70;99.90;;;;;;5025641;28;20466;-62
2022/08/27 05:38:29;;;;;;;33.80;28.50;;;22.70;99.90;;;;;;5024087;28;20526;-63
2022/08/27 05:41:24;;;;;;;34.17;29.30;;;22.70;99.90;;;;;;5026411;28;20439;-63
2022/08/27 05:43:50;;;;;;;32.43;28.60;;;22.70;99.90;;;;;;5020109;28;21027;-63
2022/08/27 05:46:19;;;;;;;32.63;28.40;;;22.70;99.90;;;;;;5013798;28;20454;-63
2022/08/27 05:48:44;;;;;;;36.73;28.20;;;22.70;99.90;;;;;;5017892;28;20471;-63
2022/08/27 05:51:16;;;;;;;35.13;29.47;;;22.70;99.90;;;;;;5014030;28;20498;-63
2022/08/27 05:53:42;;;;;;;32.53;27.83;;;22.70;99.90;;;;;;5019999;28;20211;-64
2022/08/27 05:56:22;;;;;;;29.83;26.53;;;22.80;99.90;;;;;;5016501;28;20522;-63
2022/08/27 06:01:37;;;;;;;30.53;27.20;;;22.80;99.90;;;;;;5018939;28;20430;-63
2022/08/27 06:04:03;;;;;;;31.40;26.47;;;22.90;99.90;;;;;;5019904;28;20901;-63
2022/08/27 06:06:32;;;;;;;33.80;26.80;;;22.90;99.90;;;;;;5017413;28;20469;-62
2022/08/27 06:08:58;;;;;;;35.43;28.20;;;22.80;99.90;;;;;;5014301;28;20444;-63
2022/08/27 06:11:23;;;;;;;32.83;27.50;;;22.80;99.90;;;;;;5016427;28;20438;-63
2022/08/27 06:13:49;;;;;;;33.70;27.63;;;22.80;99.90;;;;;;5017613;28;20817;-63
2022/08/27 06:16:17;;;;;;;39.53;28.53;;;22.80;99.90;;;;;;5032936;28;20207;-62
2022/08/27 06:18:45;;;;;;;32.67;25.77;;;22.80;99.90;;;;;;5016773;28;20207;-62
2022/08/27 06:21:12;;;;;;;30.77;26.07;;;22.90;99.90;;;;;;5017528;28;20447;-63
2022/08/27 06:23:38;;;;;;;33.27;28.00;;;22.80;99.90;;;;;;5016755;28;20867;-63
2022/08/27 06:26:12;;;;;;;33.50;27.87;;;22.90;99.90;;;;;;5020105;28;20443;-62
2022/08/27 06:28:40;;;;;;;34.73;28.10;;;22.90;99.90;;;;;;5019330;28;20894;-63
2022/08/27 06:31:14;;;;;;;32.23;28.57;;;22.90;99.90;;;;;;5016425;28;20459;-64
2022/08/27 06:33:40;;;;;;;34.57;27.70;;;23.00;99.90;;;;;;5020144;28;20482;-63
2022/08/27 06:36:09;;;;;;;34.80;27.17;;;22.90;99.90;;;;;;5017128;28;20986;-63
2022/08/27 06:38:36;;;;;;;29.37;25.67;;;22.80;99.90;;;;;;5017982;28;20793;-64
2022/08/27 06:41:06;;;;;;;32.10;27.13;;;22.90;99.90;;;;;;5018133;28;20439;-64
2022/08/27 06:43:35;;;;;;;30.90;26.13;;;23.00;99.90;;;;;;5019269;28;20915;-64
2022/08/27 06:46:10;;;;;;;32.00;26.17;;;23.00;99.90;;;;;;5014096;28;21003;-64
2022/08/27 06:48:36;;;;;;;32.40;26.50;;;23.00;99.90;;;;;;5017865;28;20419;-64
2022/08/27 06:51:15;;;;;;;30.03;25.90;;;23.00;99.90;;;;;;5014621;28;20431;-63
2022/08/27 06:53:41;;;;;;;34.70;29.10;;;23.10;99.90;;;;;;5018876;28;20423;-63
2022/08/27 06:56:09;;;;;;;33.17;27.87;;;23.10;99.90;;;;;;5014301;28;20506;-64
2022/08/27 06:58:35;;;;;;;32.97;26.63;;;23.20;99.90;;;;;;5017589;28;20497;-64
2022/08/27 07:01:09;;;;;;;35.07;27.03;;;23.10;99.90;;;;;;5020761;28;20463;-64
2022/08/27 07:03:35;;;;;;;34.97;28.00;;;23.10;99.90;;;;;;5017046;28;20196;-63
2022/08/27 07:06:05;;;;;;;38.60;27.67;;;23.20;99.90;;;;;;5015297;28;20450;-63
2022/08/27 07:08:31;;;;;;;30.37;26.50;;;23.20;99.90;;;;;;5022888;28;20189;-63
2022/08/27 07:10:56;;;;;;;29.90;25.97;;;23.30;99.90;;;;;;5021900;28;20965;-63
2022/08/27 07:13:22;;;;;;;30.77;27.47;;;23.30;99.90;;;;;;5014224;28;22236;-63
2022/08/27 07:15:48;;;;;;;30.73;26.80;;;23.40;99.90;;;;;;5021068;28;20208;-62
2022/08/27 07:18:13;;;;;;;37.57;28.50;;;23.40;99.90;;;;;;5019404;28;20299;-63
2022/08/27 07:20:40;;;;;;;32.80;25.97;;;23.40;99.90;;;;;;5020974;28;20288;-63
2022/08/27 07:23:06;;;;;;;28.47;25.47;;;23.40;99.90;;;;;;5022875;28;20168;-61
2022/08/27 07:25:31;;;;;;;29.90;26.53;;;23.40;99.90;;;;;;5022896;28;20493;-61
2022/08/27 07:27:58;;;;;;;29.57;24.90;;;23.50;99.90;;;;;;5027799;28;20666;-61
2022/08/27 07:30:25;;;;;;;24.73;22.13;;;23.60;99.90;;;;;;5020146;28;20554;-61
2022/08/27 07:32:51;;;;;;;28.70;22.80;;;23.60;99.90;;;;;;5017878;28;20472;-63
2022/08/27 07:35:17;;;;;;;27.23;22.50;;;23.60;99.90;;;;;;5021881;28;20517;-64
2022/08/27 07:37:42;;;;;;;24.27;20.63;;;23.60;99.90;;;;;;5021957;28;20979;-62
2022/08/27 07:40:14;;;;;;;21.63;19.40;;;23.60;99.90;;;;;;5023011;28;20191;-62
2022/08/27 07:45:25;;;;;;;23.03;19.33;;;23.60;99.90;;;;;;5020321;28;20597;-62
2022/08/27 07:47:51;;;;;;;23.10;19.27;;;23.60;99.90;;;;;;5022457;28;20434;-62
2022/08/27 07:50:17;;;;;;;22.20;19.87;;;23.60;99.90;;;;;;5021308;28;20435;-62
2022/08/27 07:52:43;;;;;;;22.70;20.10;;;23.60;99.90;;;;;;5020221;28;20192;-62
2022/08/27 07:55:13;;;;;;;23.83;21.17;;;23.50;99.90;;;;;;5022533;28;20915;-62
2022/08/27 07:57:39;;;;;;;20.63;18.67;;;23.50;99.90;;;;;;5021664;28;20252;-63
2022/08/27 08:00:08;;;;;;;27.67;21.77;;;23.50;99.90;;;;;;5023514;28;20439;-63
2022/08/27 08:02:34;;;;;;;21.47;18.87;;;23.50;99.90;;;;;;5021225;28;20576;-63
2022/08/27 08:05:00;;;;;;;24.40;20.00;;;23.50;99.90;;;;;;5014616;28;20438;-62
2022/08/27 08:07:25;;;;;;;21.17;18.93;;;23.40;99.90;;;;;;5013364;28;20220;-62
2022/08/27 08:09:51;;;;;;;21.10;18.93;;;23.40;99.90;;;;;;5013869;28;20209;-62
2022/08/27 08:12:16;;;;;;;21.90;19.70;;;23.30;99.90;;;;;;5013908;28;20661;-62
2022/08/27 08:14:42;;;;;;;22.83;20.50;;;23.30;99.90;;;;;;5015033;28;20679;-62
2022/08/27 08:17:08;;;;;;;24.43;20.37;;;23.30;99.90;;;;;;5017782;28;20254;-62
2022/08/27 08:19:34;;;;;;;23.17;20.70;;;23.20;99.90;;;;;;5016726;28;20172;-62
2022/08/27 08:22:00;;;;;;;23.90;19.10;;;23.10;99.90;;;;;;5020322;28;20200;-62
2022/08/27 08:24:26;;;;;;;22.40;20.20;;;23.10;99.90;;;;;;5019066;28;20680;-62
2022/08/27 08:26:51;;;;;;;22.63;20.13;;;23.10;99.90;;;;;;5014478;28;20518;-63
2022/08/27 08:29:17;;;;;;;22.70;20.37;;;23.10;99.90;;;;;;5014199;28;20272;-62
2022/08/27 08:31:42;;;;;;;23.90;19.87;;;23.10;99.90;;;;;;5022531;28;20220;-63
2022/08/27 08:34:09;;;;;;;22.20;19.67;;;23.10;99.90;;;;;;5028332;28;20180;-62
2022/08/27 08:36:35;;;;;;;24.43;21.30;;;23.10;99.90;;;;;;5021015;28;20213;-63
2022/08/27 08:39:02;;;;;;;24.53;21.57;;;23.10;99.90;;;;;;5026497;28;20830;-63
2022/08/27 08:41:42;;;;;;;23.00;20.80;;;23.10;99.90;;;;;;5024244;28;21001;-63
2022/08/27 08:44:31;;;;;;;23.60;21.17;;;23.00;99.90;;;;;;5024773;28;20428;-62
2022/08/27 08:47:30;;;;;;;23.40;20.90;;;22.90;99.90;;;;;;5012628;28;20863;-63
2022/08/27 08:50:31;;;;;;;20.90;18.70;;;22.90;99.90;;;;;;5024177;28;20454;-62
2022/08/27 08:53:10;;;;;;;23.43;20.47;;;22.80;99.90;;;;;;5021547;28;20456;-63
2022/08/27 08:55:55;;;;;;;24.20;19.80;;;22.80;99.90;;;;;;5019234;28;20462;-62
2022/08/27 08:58:29;;;;;;;24.97;21.97;;;22.80;99.90;;;;;;5019262;28;20419;-62
2022/08/27 09:01:00;;;;;;;26.07;23.37;;;22.70;99.90;;;;;;5020834;28;20983;-62
2022/08/27 09:03:27;;;;;;;23.90;21.17;;;22.50;99.90;;;;;;5022692;28;20646;-63
2022/08/27 09:06:01;;;;;;;24.27;21.53;;;22.20;99.90;;;;;;5020404;28;20431;-63
2022/08/27 09:08:35;;;;;;;28.40;23.37;;;22.00;99.90;;;;;;5022434;28;20430;-63
2022/08/27 09:11:19;;;;;;;30.47;25.27;;;21.90;99.90;;;;;;5021366;28;20905;-63
2022/08/27 09:14:13;;;;;;;27.90;23.60;;;21.70;99.90;;;;;;5022279;28;20477;-62
2022/08/27 09:16:39;;;;;;;25.20;22.57;;;21.60;99.90;;;;;;5002955;28;20466;-62
2022/08/27 09:19:05;;;;;;;28.10;25.00;;;21.50;99.90;;;;;;5021181;28;20447;-62
2022/08/27 09:21:50;;;;;;;29.27;23.73;;;21.40;99.90;;;;;;5021386;28;20195;-62
2022/08/27 09:24:36;;;;;;;28.57;24.10;;;21.50;99.90;;;;;;5023672;28;20415;-63
2022/08/27 09:27:02;;;;;;;27.83;24.67;;;21.60;99.90;;;;;;5021457;28;20447;-62
2022/08/27 09:29:29;;;;;;;28.77;23.13;;;21.70;99.90;;;;;;5023421;28;20428;-63
2022/08/27 09:32:07;;;;;;;26.50;22.40;;;21.80;99.90;;;;;;5024525;28;21065;-62
2022/08/27 09:34:36;;;;;;;27.60;23.33;;;21.90;99.90;;;;;;5024447;28;20407;-63
2022/08/27 09:37:14;;;;;;;27.60;23.97;;;21.90;99.90;;;;;;5023280;28;20504;-63
2022/08/27 09:39:48;;;;;;;32.20;26.17;;;22.00;99.90;;;;;;5024114;28;20490;-63
2022/08/27 09:42:47;;;;;;;29.27;25.33;;;22.00;99.90;;;;;;5019799;28;20546;-62
2022/08/27 09:45:17;;;;;;;29.63;25.60;;;22.00;99.90;;;;;;5022717;28;20493;-61
2022/08/27 09:47:49;;;;;;;26.13;23.50;;;22.10;99.90;;;;;;5024251;28;20423;-62
2022/08/27 09:50:18;;;;;;;28.80;23.93;;;22.20;99.90;;;;;;5021380;28;20877;-61
2022/08/27 09:52:49;;;;;;;27.30;24.30;;;22.20;99.90;;;;;;5018999;28;21231;-62
2022/08/27 09:55:35;;;;;;;27.93;24.93;;;22.20;99.90;;;;;;5023421;28;20556;-63
2022/08/27 09:58:04;;;;;;;27.30;24.30;;;22.30;99.90;;;;;;5023428;28;20443;-62
2022/08/27 10:00:40;;;;;;;32.50;26.23;;;22.30;99.90;;;;;;5025017;28;21070;-62
2022/08/27 10:03:08;;;;;;;28.37;25.33;;;22.40;99.90;;;;;;5021163;28;20434;-62
2022/08/27 10:05:43;;;;;;;29.53;24.30;;;22.40;99.90;;;;;;5023791;28;20407;-62
2022/08/27 10:08:21;;;;;;;27.50;22.83;;;22.40;99.90;;;;;;5023320;28;20435;-62
2022/08/27 10:10:52;;;;;;;27.50;24.53;;;22.50;99.90;;;;;;5023387;28;20877;-62
2022/08/27 10:13:28;;;;;;;27.73;25.07;;;22.50;99.90;;;;;;5021796;28;20422;-62
2022/08/27 10:16:25;;;;;;;26.53;23.83;;;22.50;99.90;;;;;;5019783;28;20486;-62
2022/08/27 10:19:11;;;;;;;28.10;25.20;;;22.50;99.90;;;;;;5025697;28;20429;-62
2022/08/27 10:21:51;;;;;;;27.27;24.30;;;22.50;99.90;;;;;;5023213;28;20911;-62
2022/08/27 10:24:47;;;;;;;27.10;24.20;;;22.50;99.90;;;;;;5022885;28;20530;-62
2022/08/27 10:27:25;;;;;;;28.23;25.07;;;22.60;99.90;;;;;;5022969;28;20589;-62
2022/08/27 10:29:56;;;;;;;27.40;24.53;;;22.50;99.90;;;;;;5021733;28;20521;-62
2022/08/27 10:32:36;;;;;;;27.67;24.77;;;22.50;99.90;;;;;;5025050;28;20542;-62
2022/08/27 10:35:26;;;;;;;29.77;24.80;;;22.60;99.90;;;;;;5021484;28;20478;-62
2022/08/27 10:38:08;;;;;;;27.73;24.83;;;22.40;99.90;;;;;;5021192;28;20915;-63
2022/08/27 10:40:56;;;;;;;28.23;25.23;;;22.50;99.90;;;;;;5017482;28;20446;-63
2022/08/27 10:43:54;;;;;;;26.63;23.07;;;22.50;99.90;;;;;;5020983;28;20517;-62
2022/08/27 10:46:25;;;;;;;27.27;24.30;;;22.40;99.90;;;;;;5021889;28;20426;-62
2022/08/27 10:49:02;;;;;;;30.60;26.17;;;22.40;99.90;;;;;;5021253;28;20828;-62
2022/08/27 10:51:51;;;;;;;27.00;23.50;;;22.30;99.90;;;;;;5014036;28;20485;-63
2022/08/27 10:54:35;;;;;;;28.13;24.83;;;22.30;99.90;;;;;;5014461;28;20505;-63
2022/08/27 10:57:35;;;;;;;28.93;26.03;;;22.30;99.90;;;;;;5021250;28;20511;-62
2022/08/27 11:00:09;;;;;;;33.73;29.97;;;22.40;99.90;;;;;;5019152;28;20423;-63
2022/08/27 11:02:53;;;;;;;42.47;36.20;;;22.50;99.90;;;;;;5020305;28;20443;-63
2022/08/27 11:05:27;;;;;;;30.57;25.13;;;22.60;99.90;;;;;;5020582;28;20758;-63
2022/08/27 11:08:06;;;;;;;28.70;25.57;;;22.50;99.90;;;;;;5022281;28;20446;-63
2022/08/27 11:10:35;;;;;;;32.33;28.73;;;22.40;99.90;;;;;;5019684;28;21189;-63
2022/08/27 11:13:45;;;;;;;33.53;25.93;;;22.40;99.90;;;;;;5018191;28;20443;-62
2022/08/27 11:16:21;;;;;;;27.63;24.57;;;22.30;99.90;;;;;;5021959;28;20577;-62
2022/08/27 11:18:52;;;;;;;29.53;26.47;;;22.30;99.90;;;;;;5026421;28;20473;-62
2022/08/27 11:21:39;;;;;;;36.47;26.00;;;22.40;99.90;;;;;;5018701;28;20454;-61
2022/08/27 11:24:18;;;;;;;28.13;24.23;;;22.20;99.90;;;;;;5019420;28;20522;-62
2022/08/27 11:26:45;;;;;;;29.00;24.80;;;22.20;99.90;;;;;;5019034;28;20870;-62
2022/08/27 11:29:25;;;;;;;26.63;23.57;;;22.20;99.90;;;;;;5021769;28;20800;-63
2022/08/27 11:32:14;;;;;;;27.10;23.33;;;22.20;99.90;;;;;;5023730;28;20479;-62
2022/08/27 11:34:52;;;;;;;31.00;23.77;;;22.30;99.90;;;;;;5021974;28;21278;-62
2022/08/27 11:37:28;;;;;;;31.70;25.60;;;22.30;99.90;;;;;;5022668;28;20509;-63
2022/08/27 11:40:20;;;;;;;25.30;21.53;;;22.30;99.90;;;;;;5023364;28;20948;-63
2022/08/27 11:42:53;;;;;;;27.03;24.30;;;22.40;99.90;;;;;;5022207;28;20449;-63
2022/08/27 11:45:27;;;;;;;31.60;24.33;;;22.50;99.90;;;;;;5021493;28;20404;-63
2022/08/27 11:47:59;;;;;;;26.43;23.17;;;22.50;99.90;;;;;;5022406;28;20503;-62
2022/08/27 11:50:27;;;;;;;25.37;22.73;;;22.50;99.90;;;;;;5019587;28;20458;-63
2022/08/27 11:53:07;;;;;;;25.73;23.03;;;22.50;99.90;;;;;;5022682;28;20984;-62
2022/08/27 11:55:38;;;;;;;30.47;22.53;;;22.50;99.90;;;;;;5018005;28;21157;-62
2022/08/27 11:58:07;;;;;;;25.93;23.23;;;22.50;99.90;;;;;;5020744;28;20430;-61
2022/08/27 12:00:38;;;;;;;26.17;22.70;;;22.50;99.90;;;;;;5023004;28;20435;-62
2022/08/27 12:03:22;;;;;;;25.97;23.27;;;22.60;99.90;;;;;;5022866;28;20415;-62
2022/08/27 12:06:07;;;;;;;25.43;22.70;;;22.60;99.90;;;;;;5019899;28;20530;-63
2022/08/27 12:08:34;;;;;;;26.73;23.90;;;22.70;99.90;;;;;;5025070;28;20890;-63
2022/08/27 12:11:18;;;;;;;26.33;23.13;;;22.70;99.90;;;;;;5025011;28;20604;-63
2022/08/27 12:13:51;;;;;;;27.70;24.73;;;22.70;99.90;;;;;;5026403;28;20798;-63
2022/08/27 12:16:17;;;;;;;29.33;23.37;;;22.70;99.90;;;;;;5023277;28;21188;-64
2022/08/27 12:18:58;;;;;;;31.30;23.80;;;22.70;99.90;;;;;;5026727;28;20403;-63
2022/08/27 12:21:38;;;;;;;27.40;22.50;;;22.70;99.90;;;;;;5025810;28;20200;-63
2022/08/27 12:24:20;;;;;;;26.33;23.03;;;22.70;99.90;;;;;;5024562;28;20418;-63
2022/08/27 12:26:58;;;;;;;28.40;25.00;;;22.80;99.90;;;;;;5022536;28;20430;-63
2022/08/27 12:29:40;;;;;;;26.07;23.37;;;22.70;99.90;;;;;;5025251;28;20425;-63
2022/08/27 12:32:31;;;;;;;28.03;24.90;;;22.70;99.90;;;;;;5022231;28;21118;-62
2022/08/27 12:35:18;;;;;;;28.83;24.70;;;22.70;99.90;;;;;;5024525;28;20434;-63
2022/08/27 12:37:53;;;;;;;27.47;24.67;;;22.70;99.90;;;;;;5021724;28;20889;-63
2022/08/27 12:40:27;;;;;;;33.13;25.43;;;22.80;99.90;;;;;;5024440;28;20442;-63
2022/08/27 12:43:17;;;;;;;30.27;25.87;;;22.80;99.90;;;;;;5021992;28;20434;-63
2022/08/27 12:45:55;;;;;;;30.87;25.73;;;22.90;99.90;;;;;;5019593;28;20822;-63
2022/08/27 12:48:31;;;;;;;29.40;25.27;;;23.00;99.90;;;;;;5024091;28;20443;-63
2022/08/27 12:51:00;;;;;;;28.37;23.33;;;23.00;99.90;;;;;;5025785;28;20912;-63
2022/08/27 12:53:46;;;;;;;25.67;23.00;;;23.10;99.90;;;;;;5017767;28;20999;-63